Map

Track Data

SID SEASON NUMBER BASIN SUBBASIN NAME ISO_TIME NATURE LAT LON WMO_WIND WMO_PRES WMO_AGENCY TRACK_TYPE DIST2LAND LANDFALL IFLAG USA_AGENCY USA_ATCF_ID USA_LAT USA_LON USA_RECORD USA_STATUS USA_WIND USA_PRES USA_SSHS USA_R34_NE USA_R34_SE USA_R34_SW USA_R34_NW USA_R50_NE USA_R50_SE USA_R50_SW USA_R50_NW USA_R64_NE USA_R64_SE USA_R64_SW USA_R64_NW USA_POCI USA_ROCI USA_RMW USA_EYE TOKYO_LAT TOKYO_LON TOKYO_GRADE TOKYO_WIND TOKYO_PRES TOKYO_R50_DIR TOKYO_R50_LONG TOKYO_R50_SHORT TOKYO_R30_DIR TOKYO_R30_LONG TOKYO_R30_SHORT TOKYO_LAND CMA_LAT CMA_LON CMA_CAT CMA_WIND CMA_PRES HKO_LAT HKO_LON HKO_CAT HKO_WIND HKO_PRES NEWDELHI_LAT NEWDELHI_LON NEWDELHI_GRADE NEWDELHI_WIND NEWDELHI_PRES NEWDELHI_CI NEWDELHI_DP NEWDELHI_POCI REUNION_LAT REUNION_LON REUNION_TYPE REUNION_WIND REUNION_PRES REUNION_TNUM REUNION_CI REUNION_RMW REUNION_R34_NE REUNION_R34_SE REUNION_R34_SW REUNION_R34_NW REUNION_R50_NE REUNION_R50_SE REUNION_R50_SW REUNION_R50_NW REUNION_R64_NE REUNION_R64_SE REUNION_R64_SW REUNION_R64_NW BOM_LAT BOM_LON BOM_TYPE BOM_WIND BOM_PRES BOM_TNUM BOM_CI BOM_RMW BOM_R34_NE BOM_R34_SE BOM_R34_SW BOM_R34_NW BOM_R50_NE BOM_R50_SE BOM_R50_SW BOM_R50_NW BOM_R64_NE BOM_R64_SE BOM_R64_SW BOM_R64_NW BOM_ROCI BOM_POCI BOM_EYE BOM_POS_METHOD BOM_PRES_METHOD NADI_LAT NADI_LON NADI_CAT NADI_WIND NADI_PRES WELLINGTON_LAT WELLINGTON_LON WELLINGTON_WIND WELLINGTON_PRES DS824_LAT DS824_LON DS824_STAGE DS824_WIND DS824_PRES TD9636_LAT TD9636_LON TD9636_STAGE TD9636_WIND TD9636_PRES TD9635_LAT TD9635_LON TD9635_WIND TD9635_PRES TD9635_ROCI NEUMANN_LAT NEUMANN_LON NEUMANN_CLASS NEUMANN_WIND NEUMANN_PRES MLC_LAT MLC_LON MLC_CLASS MLC_WIND MLC_PRES USA_GUST BOM_GUST BOM_GUST_PER REUNION_GUST REUNION_GUST_PER USA_SEAHGT USA_SEARAD_NE USA_SEARAD_SE USA_SEARAD_SW USA_SEARAD_NW STORM_SPEED STORM_DIR
1998252N26266 1998 59 NA GM FRANCES 1998-09-08 18:00:00 TS 25.5000 -94.5000 30 1000 hurdat_atl main 266 266 O_____________ hurdat_atl AL061998 25.5000 -94.5000 TD 30 1000 -1 2 152
1998252N26266 1998 59 NA GM FRANCES 1998-09-08 21:00:00 TS 25.4075 -94.4325 main 278 278 P_____________ AL061998 25.4075 -94.4325 TD 30 1000 -1 2 155
1998252N26266 1998 59 NA GM FRANCES 1998-09-09 00:00:00 TS 25.3000 -94.4000 30 1000 hurdat_atl main 281 281 O_____________ hurdat_atl AL061998 25.3000 -94.4000 TD 30 1000 -1 2 174
1998252N26266 1998 59 NA GM FRANCES 1998-09-09 03:00:00 TS 25.1650 -94.4275 main 284 276 P_____________ AL061998 25.1650 -94.4275 TD 30 999 -1 3 196
1998252N26266 1998 59 NA GM FRANCES 1998-09-09 06:00:00 TS 25.0000 -94.5000 30 999 hurdat_atl main 279 279 O_____________ hurdat_atl AL061998 25.0000 -94.5000 TD 30 999 -1 4 198
1998252N26266 1998 59 NA GM FRANCES 1998-09-09 09:00:00 TS 24.8073 -94.5473 main 285 275 P_____________ AL061998 24.8073 -94.5473 TD 30 998 -1 4 204
1998252N26266 1998 59 NA GM FRANCES 1998-09-09 12:00:00 TS 24.6000 -94.7000 30 998 hurdat_atl main 275 248 O_____________ hurdat_atl AL061998 24.6000 -94.7000 TD 30 998 -1 6 233
1998252N26266 1998 59 NA GM FRANCES 1998-09-09 15:00:00 TS 24.4230 -95.1077 main 248 220 P_____________ AL061998 24.4230 -95.1077 TD 32 997 -1 8 241
1998252N26266 1998 59 NA GM FRANCES 1998-09-09 18:00:00 TS 24.2000 -95.5000 35 997 hurdat_atl main 220 213 O_____________ hurdat_atl AL061998 24.2000 -95.5000 TS 35 997 0 8 217
1998252N26266 1998 59 NA GM FRANCES 1998-09-09 21:00:00 TS 23.7672 -95.6546 main 213 213 P_____________ AL061998 23.7672 -95.6546 TS 37 996 0 7 187
1998252N26266 1998 59 NA GM FRANCES 1998-09-10 00:00:00 TS 23.5000 -95.6000 40 995 hurdat_atl main 224 224 O_____________ hurdat_atl AL061998 23.5000 -95.6000 TS 40 995 0 3 99
1998252N26266 1998 59 NA GM FRANCES 1998-09-10 03:00:00 TS 23.7153 -95.2934 main 254 254 P_____________ AL061998 23.7153 -95.2934 TS 40 995 0 9 38
1998252N26266 1998 59 NA GM FRANCES 1998-09-10 06:00:00 TS 24.2000 -95.0000 40 995 hurdat_atl main 266 243 O_____________ hurdat_atl AL061998 24.2000 -95.0000 TS 40 995 0 10 12
1998252N26266 1998 59 NA GM FRANCES 1998-09-10 09:00:00 TS 24.7050 -95.0543 main 233 203 P_____________ AL061998 24.7050 -95.0543 TS 42 995 0 11 351
1998252N26266 1998 59 NA GM FRANCES 1998-09-10 12:00:00 TS 25.3000 -95.2000 45 996 hurdat_atl main 203 189 O_____________ hurdat_atl AL061998 25.3000 -95.2000 TS 45 996 0 13 356
1998252N26266 1998 59 NA GM FRANCES 1998-09-10 15:00:00 TS 25.9874 -95.1633 main 189 189 P_____________ AL061998 25.9874 -95.1633 TS 45 996 0 13 1
1998252N26266 1998 59 NA GM FRANCES 1998-09-10 18:00:00 TS 26.6000 -95.2000 45 996 hurdat_atl main 200 188 O_____________ hurdat_atl AL061998 26.6000 -95.2000 TS 45 996 0 10 343
1998252N26266 1998 59 NA GM FRANCES 1998-09-10 21:00:00 TS 26.9225 -95.4755 main 188 140 P_____________ AL061998 26.9225 -95.4755 TS 50 995 0 9 314
1998252N26266 1998 59 NA GM FRANCES 1998-09-11 00:00:00 TS 27.2000 -95.9000 55 994 hurdat_atl main 140 66 O_____________ hurdat_atl AL061998 27.2000 -95.9000 TS 55 994 0 12 315
1998252N26266 1998 59 NA GM FRANCES 1998-09-11 03:00:00 TS 27.7303 -96.3988 main 66 0 P_____________ AL061998 27.7303 -96.3988 TS 50 992 0 13 318
1998252N26266 1998 59 NA NA FRANCES 1998-09-11 06:00:00 TS 28.2000 -96.9000 45 990 hurdat_atl main 0 0 O_____________ hurdat_atl AL061998 28.2000 -96.9000 L TS 45 990 0 11 307
1998252N26266 1998 59 NA NA FRANCES 1998-09-11 09:00:00 TS 28.3674 -97.3707 main 0 0 P_____________ AL061998 28.3674 -97.3707 TS 42 991 0 6 288
1998252N26266 1998 59 NA NA FRANCES 1998-09-11 12:00:00 TS 28.4000 -97.6000 40 992 hurdat_atl main 0 0 O_____________ hurdat_atl AL061998 28.4000 -97.6000 TS 40 992 0 0 17
1998252N26266 1998 59 NA NA FRANCES 1998-09-11 15:00:00 TS 28.4053 -97.3600 main 0 0 P_____________ AL061998 28.4053 -97.3600 TS 37 993 0 5 79
1998252N26266 1998 59 NA NA FRANCES 1998-09-11 18:00:00 TS 28.5000 -97.0000 35 994 hurdat_atl main 0 0 O_____________ hurdat_atl AL061998 28.5000 -97.0000 TS 35 994 0 6 42
1998252N26266 1998 59 NA NA FRANCES 1998-09-11 21:00:00 TS 28.8399 -96.9124 main 0 0 P_____________ AL061998 28.8399 -96.9124 TS 32 995 -1 8 6
1998252N26266 1998 59 NA NA FRANCES 1998-09-12 00:00:00 TS 29.3000 -96.9000 30 996 hurdat_atl main 0 0 O_____________ hurdat_atl AL061998 29.3000 -96.9000 TD 30 996 -1 9 3
1998252N26266 1998 59 NA NA FRANCES 1998-09-12 03:00:00 TS 29.7500 -96.8426 main 0 0 P_____________ AL061998 29.7500 -96.8426 TD 30 997 -1 9 5
1998252N26266 1998 59 NA NA FRANCES 1998-09-12 06:00:00 TS 30.2000 -96.8000 30 998 hurdat_atl main 0 0 O_____________ hurdat_atl AL061998 30.2000 -96.8000 TD 30 998 -1 9 3
1998252N26266 1998 59 NA NA FRANCES 1998-09-12 09:00:00 TS 30.6450 -96.7924 main 0 0 P_____________ AL061998 30.6450 -96.7924 TD 30 999 -1 8 1
1998252N26266 1998 59 NA NA FRANCES 1998-09-12 12:00:00 TS 31.0000 -96.8000 30 1000 hurdat_atl main 0 0 O_____________ hurdat_atl AL061998 31.0000 -96.8000 TD 30 1000 -1 6 0
1998252N26266 1998 59 NA NA FRANCES 1998-09-12 15:00:00 TS 31.1950 -96.8000 main 0 0 P_____________ AL061998 31.1950 -96.8000 TD 30 1000 -1 3 0
1998252N26266 1998 59 NA NA FRANCES 1998-09-12 18:00:00 TS 31.3000 -96.8000 30 1001 hurdat_atl main 0 0 O_____________ hurdat_atl AL061998 31.3000 -96.8000 TD 30 1001 -1 2 4
1998252N26266 1998 59 NA NA FRANCES 1998-09-12 21:00:00 TS 31.4075 -96.7925 main 0 0 P_____________ AL061998 31.4075 -96.7925 TD 27 1001 -1 2 8
1998252N26266 1998 59 NA NA FRANCES 1998-09-13 00:00:00 TS 31.5000 -96.8000 25 1002 hurdat_atl main 0 0 O_____________ hurdat_atl AL061998 31.5000 -96.8000 TD 25 1002 -1 2 343
1998252N26266 1998 59 NA NA FRANCES 1998-09-13 03:00:00 TS 31.5925 -96.8500 main 0 0 P_____________ AL061998 31.5925 -96.8500 TD 22 1002 -1 2 335
1998252N26266 1998 59 NA NA FRANCES 1998-09-13 06:00:00 TS 31.7000 -96.9000 20 1002 hurdat_atl main 0 0 O_____________ hurdat_atl AL061998 31.7000 -96.9000 TD 20 1002 -1 2 348
1998252N26266 1998 59 NA NA FRANCES 1998-09-13 09:00:00 TS 31.7900 -96.9001 main 0 0 P_____________ AL061998 31.7900 -96.9001 TD 20 1002 -1 3 0
1998252N26266 1998 59 NA NA FRANCES 1998-09-13 12:00:00 TS 32.0000 -96.9000 20 1003 hurdat_atl main 0 0 O_____________ hurdat_atl AL061998 32.0000 -96.9000 TD 20 1003 -1 6 356
1998252N26266 1998 59 NA NA FRANCES 1998-09-13 15:00:00 TS 32.4325 -96.9372 main 0 0 P_____________ AL061998 32.4325 -96.9372 TD 20 1003 -1 10 355
1998252N26266 1998 59 NA NA FRANCES 1998-09-13 18:00:00 TS 33.0000 -97.0000 20 1003 hurdat_atl main 0 O_____________ hurdat_atl AL061998 33.0000 -97.0000 TD 20 1003 -1 11 354

About IBTrACS Database

This database is a web-friendly format of International Best Track Archive for Climate Stewardship (IBTrACS), a global best track data archive curated by NOAA dating back to 1842.

Updated: 2021-11-26